Time;durP1;ratioP1;P1;durP2;ratioP2;P2;SDS_P1;SDS_P2;PMS_P1;PMS_P2;Temp;Humidity;BMP_temperature;BMP_pressure;BME280_temperature;BME280_humidity;BME280_pressure;Samples;Min_cycle;Max_cycle;Signal;HPM_P1;HPM_P2
2022/09/05 00:01:45;;;;;;;2.77;2.50;;;19.60;99.90;;;20.64;72.15;101008.00;4991592;28;20645;-68
2022/09/05 00:04:35;;;;;;;2.80;2.70;;;19.50;99.90;;;20.69;72.47;101003.06;4994379;28;20614;-68
2022/09/05 00:07:34;;;;;;;4.77;3.20;;;19.50;99.90;;;20.52;73.24;101006.69;4987120;28;20709;-68
2022/09/05 00:10:26;;;;;;;2.97;2.67;;;19.30;99.90;;;20.60;72.57;101012.00;4973483;28;20620;-68
2022/09/05 00:13:11;;;;;;;3.10;2.90;;;19.40;99.90;;;20.60;72.44;101005.84;4989912;28;20634;-68
2022/09/05 00:15:50;;;;;;;3.30;3.10;;;19.30;99.90;;;20.58;72.57;101008.69;4993803;28;20681;-68
2022/09/05 00:18:49;;;;;;;4.73;3.30;;;19.30;99.90;;;20.51;73.22;101009.50;4976001;28;21245;-68
2022/09/05 00:22:19;;;;;;;3.97;3.67;;;19.20;99.90;;;20.54;73.31;101012.66;4986100;28;20634;-68
2022/09/05 00:25:45;;;;;;;3.77;3.47;;;19.30;99.90;;;20.57;73.08;101006.22;4973836;28;20639;-69
2022/09/05 00:28:47;;;;;;;4.20;3.90;;;19.20;99.90;;;20.53;73.47;100996.94;4973304;28;20674;-69
2022/09/05 00:31:53;;;;;;;3.50;3.20;;;19.20;99.90;;;20.48;73.79;100997.41;4973035;28;20646;-68
2022/09/05 00:34:55;;;;;;;5.00;3.07;;;19.20;99.90;;;20.52;73.73;101005.88;4988185;28;20714;-68
2022/09/05 00:37:30;;;;;;;3.70;3.40;;;19.20;99.90;;;20.42;74.08;100999.91;4977084;28;21222;-68
2022/09/05 00:40:18;;;;;;;3.70;3.40;;;19.20;99.90;;;20.34;74.41;100994.56;4973547;28;20618;-68
2022/09/05 00:42:55;;;;;;;3.77;3.40;;;19.10;99.90;;;20.23;74.87;100992.25;5002000;28;20635;-68
2022/09/05 00:45:32;;;;;;;3.60;3.40;;;19.10;99.90;;;20.24;74.96;100991.25;5004319;28;20653;-68
2022/09/05 00:48:22;;;;;;;3.90;3.60;;;19.10;99.90;;;20.31;74.96;100987.81;5003216;28;20983;-68
2022/09/05 00:51:13;;;;;;;4.27;3.40;;;19.10;99.90;;;20.38;74.18;100999.38;4995756;28;21168;-68
2022/09/05 00:53:53;;;;;;;3.73;3.43;;;19.10;99.90;;;20.34;74.58;100994.56;4985821;28;20645;-68
2022/09/05 00:56:52;;;;;;;3.30;3.10;;;19.10;99.90;;;20.40;73.69;100996.59;4972470;28;20654;-68
2022/09/05 00:59:54;;;;;;;4.97;3.47;;;19.10;99.90;;;20.42;73.99;100989.31;4972294;28;21018;-68
2022/09/05 01:02:56;;;;;;;3.33;2.97;;;19.10;99.90;;;20.34;73.79;100994.56;4987587;28;20647;-68
2022/09/05 01:05:52;;;;;;;3.77;2.90;;;19.10;99.90;;;20.26;73.96;100987.47;4990660;28;20669;-66
2022/09/05 01:09:08;;;;;;;5.50;2.60;;;19.00;99.90;;;20.26;74.11;100989.25;4988128;28;20652;-68
2022/09/05 01:12:08;;;;;;;2.97;2.77;;;18.90;99.90;;;20.17;74.08;100982.28;4990030;28;21349;-69
2022/09/05 01:14:54;;;;;;;2.87;2.67;;;18.90;99.90;;;19.98;75.28;100994.81;4991022;28;20662;-68
2022/09/05 01:17:49;;;;;;;3.80;3.27;;;18.80;99.90;;;19.92;75.40;100987.53;4988945;28;20730;-68
2022/09/05 01:20:54;;;;;;;2.60;2.40;;;18.70;99.90;;;19.97;75.45;100987.06;5001363;28;20645;-68
2022/09/05 01:24:14;;;;;;;3.47;3.17;;;18.60;99.90;;;19.95;75.40;100995.13;5006427;28;21216;-68
2022/09/05 01:27:30;;;;;;;3.60;3.10;;;18.70;99.90;;;19.91;75.77;100999.09;4992037;28;21227;-68
2022/09/05 01:30:19;;;;;;;3.10;2.60;;;18.60;99.90;;;19.88;75.60;100996.78;4991614;28;21021;-68
2022/09/05 01:32:55;;;;;;;5.90;2.50;;;18.60;99.90;;;19.75;76.08;100992.94;4992728;28;20705;-68
2022/09/05 01:36:05;;;;;;;3.80;3.23;;;18.60;99.90;;;19.79;76.30;100986.31;4990698;28;20674;-68
2022/09/05 01:38:50;;;;;;;4.10;3.70;;;18.50;99.90;;;19.77;75.87;100983.00;4993022;28;20739;-68
2022/09/05 01:42:24;;;;;;;3.40;3.17;;;18.50;99.90;;;19.77;76.18;100977.72;4987210;28;20703;-68
2022/09/05 01:45:25;;;;;;;3.63;3.20;;;18.40;99.90;;;19.73;76.50;100971.91;4972817;28;20631;-68
2022/09/05 01:48:20;;;;;;;4.00;3.60;;;18.40;99.90;;;19.75;76.78;100966.47;4978982;28;20674;-67
2022/09/05 01:51:35;;;;;;;4.90;4.23;;;18.40;99.90;;;19.68;77.31;100968.91;4971886;28;20627;-68
2022/09/05 01:54:36;;;;;;;5.30;4.50;;;18.40;99.90;;;19.68;77.63;100968.91;4986528;28;20670;-67
2022/09/05 01:57:33;;;;;;;3.93;3.53;;;18.40;99.90;;;19.62;78.24;100977.50;4987502;28;20745;-68
2022/09/05 02:00:21;;;;;;;3.20;2.90;;;18.40;99.90;;;19.55;77.88;100967.72;4986487;28;21042;-68
2022/09/05 02:03:19;;;;;;;4.40;3.80;;;18.40;99.90;;;19.52;78.68;100973.31;4970515;28;20984;-68
2022/09/05 02:06:04;;;;;;;3.97;3.67;;;18.30;99.90;;;19.53;78.54;100970.50;4999388;28;20764;-69
2022/09/05 02:09:09;;;;;;;4.20;3.57;;;18.30;99.90;;;19.55;77.84;100973.81;4983160;28;20653;-69
2022/09/05 02:12:00;;;;;;;3.43;2.90;;;18.20;99.90;;;19.52;77.92;100974.16;4989779;28;20634;-68
2022/09/05 02:14:41;;;;;;;4.60;3.50;;;18.20;99.90;;;19.60;77.69;100971.53;4989921;28;21236;-68
2022/09/05 02:17:39;;;;;;;4.03;3.70;;;18.20;99.90;;;19.49;78.15;100973.63;4990787;28;20645;-68
2022/09/05 02:20:34;;;;;;;4.20;3.80;;;18.20;99.90;;;19.52;77.64;100983.91;4992649;28;20860;-69
2022/09/05 02:23:16;;;;;;;4.27;3.87;;;18.20;99.90;;;19.44;77.62;100981.25;4992514;28;20610;-68
2022/09/05 02:26:22;;;;;;;5.43;3.97;;;18.30;99.90;;;19.45;77.08;100975.78;4991043;28;20661;-69
2022/09/05 02:29:04;;;;;;;4.03;3.73;;;18.20;99.90;;;19.49;76.40;100982.41;4990133;28;20641;-68
2022/09/05 02:31:51;;;;;;;3.40;3.10;;;18.20;99.90;;;19.42;76.92;100978.75;4989351;28;21249;-67
2022/09/05 02:34:47;;;;;;;3.70;3.40;;;18.10;99.90;;;19.29;77.48;100980.97;5001155;28;20758;-68
2022/09/05 02:37:44;;;;;;;3.97;3.50;;;18.10;99.90;;;19.25;77.56;100982.28;5000691;28;20630;-69
2022/09/05 02:41:18;;;;;;;3.83;3.47;;;18.00;99.90;;;19.22;77.69;100974.66;4990905;28;20611;-68
2022/09/05 02:44:08;;;;;;;3.87;3.47;;;18.00;99.90;;;19.17;78.14;100975.13;4972717;28;20622;-68
2022/09/05 02:47:21;;;;;;;9.53;4.10;;;17.90;99.90;;;19.20;77.85;100969.53;4990022;28;20654;-69
2022/09/05 02:50:21;;;;;;;4.57;3.60;;;17.90;99.90;;;19.15;77.51;100974.44;4990105;28;21174;-69
2022/09/05 02:53:12;;;;;;;3.47;3.17;;;18.00;99.90;;;19.11;78.02;100974.91;4991443;28;20711;-67
2022/09/05 02:56:41;;;;;;;5.53;3.80;;;17.90;99.90;;;19.18;77.54;100973.31;4989790;28;20678;-67
2022/09/05 02:59:53;;;;;;;3.50;3.00;;;17.90;99.90;;;19.03;77.73;100966.94;4988649;28;20649;-67
2022/09/05 03:03:00;;;;;;;4.37;3.60;;;17.90;99.90;;;18.95;78.33;100975.63;4987204;28;20622;-67
2022/09/05 03:05:36;;;;;;;3.67;3.37;;;17.80;99.90;;;18.89;78.36;100972.81;4970844;28;20650;-66
2022/09/05 03:08:21;;;;;;;4.47;3.87;;;17.70;99.90;;;18.83;78.63;100971.59;4970420;28;20615;-67
2022/09/05 03:11:52;;;;;;;4.13;3.73;;;17.70;99.90;;;18.89;78.78;100967.53;4972930;28;20687;-67
2022/09/05 03:15:02;;;;;;;6.03;5.00;;;17.70;99.90;;;19.08;78.04;100968.13;4987756;28;20638;-68
2022/09/05 03:18:26;;;;;;;5.80;4.00;;;17.80;99.90;;;19.01;77.97;100976.84;4970730;28;20619;-69
2022/09/05 03:21:36;;;;;;;3.43;3.10;;;17.80;99.90;;;18.97;78.14;100980.78;4977431;28;20644;-68
2022/09/05 03:24:56;;;;;;;3.80;3.27;;;17.80;99.90;;;18.95;78.28;100980.91;4969840;28;20614;-68
2022/09/05 03:27:45;;;;;;;3.27;2.97;;;17.70;99.90;;;18.95;77.69;100974.81;4972364;28;20619;-69
2022/09/05 03:30:20;;;;;;;3.83;3.47;;;17.70;99.90;;;18.99;77.48;100976.16;4978882;28;21235;-68
2022/09/05 03:32:47;;;;;;;4.43;3.60;;;17.70;99.90;;;18.91;77.74;100971.63;4970288;28;21083;-68
2022/09/05 03:36:18;;;;;;;4.50;4.10;;;17.70;99.90;;;18.98;77.31;100970.03;4986061;28;20766;-70
2022/09/05 03:39:22;;;;;;;6.40;4.87;;;17.70;99.90;;;18.98;77.15;100969.22;4990526;28;20611;-68
2022/09/05 03:42:09;;;;;;;11.47;3.83;;;17.80;99.90;;;18.97;77.40;100983.44;4990317;28;20646;-68
2022/09/05 03:45:21;;;;;;;4.70;3.60;;;17.80;99.90;;;18.93;76.97;100979.44;4988592;28;20638;-67
2022/09/05 03:48:34;;;;;;;3.03;2.73;;;17.80;99.90;;;18.88;76.95;100989.63;4990262;28;20662;-69
2022/09/05 03:51:41;;;;;;;6.13;4.03;;;17.70;99.90;;;18.76;77.71;100990.88;4983646;28;20650;-68
2022/09/05 03:54:46;;;;;;;5.40;3.70;;;17.60;99.90;;;18.83;76.93;100989.25;4983757;28;20686;-68
2022/09/05 03:58:14;;;;;;;5.30;4.07;;;17.60;99.90;;;18.81;76.65;100980.66;4973848;28;21160;-67
2022/09/05 04:01:25;;;;;;;5.23;4.60;;;17.50;99.90;;;18.82;76.79;100984.97;5003492;28;20642;-67
2022/09/05 04:04:54;;;;;;;6.00;5.00;;;17.60;99.90;;;18.83;76.72;100981.34;4974317;28;20615;-67
2022/09/05 04:07:57;;;;;;;5.37;4.33;;;17.60;99.90;;;18.91;76.48;100974.28;4992436;28;20645;-67
2022/09/05 04:10:54;;;;;;;5.77;4.80;;;17.70;99.90;;;18.94;76.07;100989.00;4993977;28;20943;-67
2022/09/05 04:13:30;;;;;;;5.43;4.37;;;17.70;99.90;;;18.94;76.15;100978.44;4995089;28;20646;-67
2022/09/05 04:16:53;;;;;;;4.70;3.63;;;17.70;99.90;;;18.86;76.39;100984.53;4992587;28;21229;-67
2022/09/05 04:19:27;;;;;;;3.80;3.47;;;17.70;99.90;;;18.80;76.34;100982.50;4960677;28;20629;-67
2022/09/05 04:22:23;;;;;;;4.47;3.90;;;17.60;99.90;;;18.78;76.00;100979.19;4991207;28;21006;-68
2022/09/05 04:25:43;;;;;;;4.93;4.40;;;17.60;99.90;;;18.72;76.10;100989.53;4992491;28;21170;-67
2022/09/05 04:28:41;;;;;;;4.27;3.80;;;17.50;99.90;;;18.70;76.57;100994.97;4993304;28;20646;-68
2022/09/05 04:32:06;;;;;;;5.20;4.33;;;17.50;99.90;;;18.73;76.37;100996.47;4977329;28;20634;-67
2022/09/05 04:35:09;;;;;;;7.30;4.03;;;17.50;99.90;;;18.81;75.82;100988.59;4992689;28;21238;-68
2022/09/05 04:37:54;;;;;;;5.17;4.67;;;17.60;99.90;;;18.89;75.69;100996.59;4991521;28;21222;-68
2022/09/05 04:41:03;;;;;;;4.40;4.00;;;17.60;99.90;;;18.86;75.76;100996.91;4993434;28;20603;-68
2022/09/05 04:43:50;;;;;;;5.83;4.30;;;17.70;99.90;;;18.86;75.44;100999.53;4988938;28;20636;-68
2022/09/05 04:46:39;;;;;;;9.07;3.37;;;17.70;99.90;;;18.93;75.21;100996.13;4980652;28;20678;-67
2022/09/05 04:49:30;;;;;;;4.73;3.33;;;17.70;99.90;;;18.95;75.67;101002.06;4974105;28;20669;-69
2022/09/05 04:52:35;;;;;;;5.60;4.20;;;17.70;99.90;;;18.95;74.96;101006.56;4991685;28;20646;-69
2022/09/05 04:58:00;;;;;;;5.93;4.47;;;17.80;99.90;;;18.86;75.90;101010.13;5030238;28;20750;-64
2022/09/05 05:00:50;;;;;;;5.43;4.23;;;17.70;99.90;;;19.04;75.67;101010.88;5014961;28;20605;-64
2022/09/05 05:03:37;;;;;;;8.67;4.70;;;17.80;99.90;;;19.19;75.01;101014.63;5031229;28;20647;-64
2022/09/05 05:06:40;;;;;;;7.20;5.20;;;17.90;99.90;;;19.21;75.10;101017.94;5019755;28;20665;-64
2022/09/05 05:09:25;;;;;;;5.07;4.57;;;18.00;99.90;;;19.36;74.62;101016.41;5012503;28;20621;-67
2022/09/05 05:11:57;;;;;;;7.13;4.90;;;18.10;99.90;;;19.58;73.25;101018.53;5012852;28;21191;-64
2022/09/05 05:15:01;;;;;;;6.33;4.90;;;18.30;99.90;;;19.65;73.19;101024.84;5012728;28;20634;-65
2022/09/05 05:18:10;;;;;;;7.53;4.93;;;18.50;99.90;;;20.04;72.00;101028.59;5005481;28;21049;-65
2022/09/05 05:21:08;;;;;;;5.67;4.60;;;18.60;99.90;;;20.57;69.27;101035.38;5012557;28;20689;-65
2022/09/05 05:23:40;;;;;;;5.17;4.73;;;19.10;99.90;;;21.02;67.50;101037.50;5008949;28;20967;-65
2022/09/05 05:26:21;;;;;;;6.17;4.87;;;19.50;99.90;;;21.36;65.59;101030.19;5010519;28;20653;-64
2022/09/05 05:29:26;;;;;;;3.90;3.60;;;19.80;99.90;;;21.87;64.04;101034.16;5008096;28;20720;-62
2022/09/05 05:31:59;;;;;;;4.50;4.00;;;20.20;99.90;;;22.33;62.56;101038.53;5009457;28;20643;-64
2022/09/05 05:34:41;;;;;;;5.20;4.00;;;20.50;99.90;;;22.72;61.08;101033.13;5010323;28;20712;-64
2022/09/05 05:37:30;;;;;;;5.47;4.40;;;20.80;99.90;;;22.89;60.29;101043.44;5010569;28;20668;-64
2022/09/05 05:40:30;;;;;;;5.13;4.37;;;20.90;99.90;;;23.32;58.83;101049.84;5004161;28;20617;-65
2022/09/05 05:43:26;;;;;;;3.63;3.27;;;21.30;99.90;;;24.14;56.06;101045.25;5001344;28;20622;-65
2022/09/05 05:45:58;;;;;;;4.83;4.20;;;21.80;99.90;;;24.72;54.59;101058.38;5010357;28;20725;-64
2022/09/05 05:48:33;;;;;;;4.70;4.20;;;22.20;99.90;;;25.09;53.09;101049.25;5010688;28;20666;-65
2022/09/05 05:51:51;;;;;;;6.17;4.50;;;22.50;99.90;;;25.76;51.13;101055.66;5010244;28;20641;-64
2022/09/05 05:54:48;;;;;;;4.83;4.40;;;23.00;99.90;;;25.95;50.95;101059.44;4995725;28;20641;-64
2022/09/05 05:58:14;;;;;;;4.60;4.20;;;23.20;99.90;;;26.86;47.98;101059.69;5008989;28;20661;-65
2022/09/05 06:01:09;;;;;;;5.23;4.53;;;23.80;99.90;;;27.67;46.32;101054.84;4990328;28;20630;-64
2022/09/05 06:04:55;;;;;;;4.90;4.00;;;24.40;99.90;;;27.12;46.93;101061.53;5020947;28;20628;-66
2022/09/05 06:07:59;;;;;;;5.20;4.40;;;24.50;99.90;;;26.88;47.65;101057.63;5009557;28;20658;-63
2022/09/05 06:11:13;;;;;;;5.60;5.10;;;24.30;99.90;;;27.77;46.30;101054.41;4998583;28;20634;-65
2022/09/05 06:14:37;;;;;;;6.53;4.50;;;24.70;99.90;;;29.57;41.88;101064.31;4992834;28;20607;-64
2022/09/05 06:17:30;;;;;;;6.60;4.97;;;25.70;99.30;;;30.53;40.36;101068.69;5010973;28;20642;-65
2022/09/05 06:20:50;;;;;;;5.87;5.33;;;26.50;97.50;;;30.34;39.66;101061.72;5010408;28;20641;-64
2022/09/05 06:24:01;;;;;;;6.80;5.67;;;26.90;96.50;;;29.46;41.33;101067.72;5009563;28;20621;-65
2022/09/05 06:26:50;;;;;;;5.60;5.10;;;26.70;95.80;;;27.95;44.52;101054.53;5004278;28;21030;-65
2022/09/05 06:29:38;;;;;;;5.70;5.20;;;25.90;96.40;;;27.04;46.65;101058.25;5010004;28;20616;-65
2022/09/05 06:32:26;;;;;;;7.30;5.90;;;25.20;97.00;;;26.49;48.52;101062.91;5010691;28;20719;-65
2022/09/05 06:35:25;;;;;;;5.50;5.00;;;24.80;98.20;;;25.99;49.50;101076.72;5010590;28;20617;-64
2022/09/05 06:38:12;;;;;;;9.57;5.87;;;24.30;98.90;;;26.62;48.21;101067.47;5011632;28;20618;-63
2022/09/05 06:41:19;;;;;;;6.33;5.17;;;24.30;99.10;;;27.02;47.73;101071.00;5008665;28;20644;-64
2022/09/05 06:44:31;;;;;;;8.70;5.03;;;24.50;99.20;;;27.98;45.66;101072.91;5010003;28;20632;-65
2022/09/05 06:47:05;;;;;;;6.27;4.70;;;24.90;98.80;;;27.76;46.03;101074.19;5009726;28;20645;-64
2022/09/05 06:50:04;;;;;;;5.83;4.80;;;25.10;98.20;;;28.40;44.77;101074.97;5009104;28;20618;-64
2022/09/05 06:53:37;;;;;;;5.53;4.87;;;25.40;98.40;;;31.41;38.72;101081.38;5003093;28;20613;-64
2022/09/05 06:56:22;;;;;;;6.80;5.90;;;26.80;96.80;;;33.41;35.26;101083.50;5009595;28;20674;-64
2022/09/05 06:59:20;;;;;;;5.93;5.33;;;28.30;94.30;;;35.35;32.32;101079.59;5010056;28;20621;-65
2022/09/05 07:02:13;;;;;;;5.87;4.70;;;30.00;92.00;;;36.32;30.38;101087.88;5008999;28;21021;-65
2022/09/05 07:05:07;;;;;;;6.37;5.17;;;31.10;88.20;;;36.87;29.74;101078.97;5008256;28;21180;-64
2022/09/05 07:08:09;;;;;;;5.77;4.60;;;31.90;84.30;;;37.43;28.58;101098.81;5023115;28;20633;-64
2022/09/05 07:11:23;;;;;;;7.60;5.20;;;32.60;79.80;;;37.62;28.50;101099.81;5011032;28;20853;-64
2022/09/05 07:13:56;;;;;;;7.30;5.10;;;33.00;76.30;;;38.29;28.15;101101.19;5024554;28;20644;-64
2022/09/05 07:16:46;;;;;;;8.70;5.10;;;33.60;74.40;;;38.71;27.42;101098.72;5008966;28;20677;-65
2022/09/05 07:19:42;;;;;;;5.87;5.20;;;34.10;71.80;;;39.01;26.43;101101.19;4993766;28;20733;-62
2022/09/05 07:22:40;;;;;;;5.83;5.23;;;34.50;69.70;;;39.29;26.15;101094.91;4990297;28;20614;-64
2022/09/05 07:25:19;;;;;;;5.77;5.27;;;34.80;68.30;;;39.20;26.45;101093.94;4990166;28;20622;-64
2022/09/05 07:27:51;;;;;;;8.37;5.30;;;35.00;66.80;;;38.74;26.83;101095.41;5002516;28;20626;-64
2022/09/05 07:30:46;;;;;;;5.87;5.37;;;34.90;66.00;;;38.72;27.07;101097.63;5013659;28;21026;-65
2022/09/05 07:33:20;;;;;;;9.93;4.97;;;35.10;65.20;;;38.58;27.50;101100.16;5013276;28;21166;-64
2022/09/05 07:35:50;;;;;;;7.93;5.20;;;35.10;64.70;;;38.39;27.29;101095.66;5013807;28;20678;-65
2022/09/05 07:38:24;;;;;;;7.60;5.03;;;34.90;64.50;;;38.03;28.03;101095.88;5014113;28;20610;-65
2022/09/05 07:41:31;;;;;;;5.93;5.40;;;34.70;64.40;;;38.06;28.12;101098.00;5010921;28;21057;-64
2022/09/05 07:44:29;;;;;;;5.80;5.33;;;34.60;64.50;;;37.57;28.85;101105.28;5009695;28;20656;-66
2022/09/05 07:47:14;;;;;;;5.53;5.00;;;34.40;64.50;;;36.97;29.54;101095.31;4988426;28;20649;-65
2022/09/05 07:49:44;;;;;;;6.33;5.30;;;34.00;64.80;;;37.02;29.25;101097.19;5012605;28;20621;-64
2022/09/05 07:52:37;;;;;;;4.63;4.27;;;33.90;64.60;;;37.21;29.74;101100.97;5010250;28;20610;-65
2022/09/05 07:55:34;;;;;;;9.77;4.90;;;33.90;65.00;;;37.29;28.73;101100.44;5004545;28;21252;-62
2022/09/05 07:58:42;;;;;;;5.20;4.70;;;33.80;64.70;;;37.70;28.55;101098.41;5004053;28;20626;-64
2022/09/05 08:01:12;;;;;;;4.53;4.20;;;34.00;64.00;;;38.08;28.08;101098.53;5011398;28;20629;-64
2022/09/05 08:03:42;;;;;;;8.13;4.57;;;34.20;63.60;;;38.46;27.86;101107.88;5010408;28;20634;-64
2022/09/05 08:06:24;;;;;;;4.63;4.03;;;34.50;63.10;;;39.03;27.21;101099.00;5011401;28;20736;-65
2022/09/05 08:09:39;;;;;;;4.10;3.80;;;34.90;62.60;;;39.99;25.80;101096.03;5012396;28;21177;-64
2022/09/05 08:12:40;;;;;;;6.03;4.20;;;35.30;61.70;;;41.10;24.22;101098.97;5012153;28;21205;-65
2022/09/05 08:15:28;;;;;;;4.20;4.00;;;36.10;60.30;;;42.01;23.49;101107.00;5005837;28;20642;-64
2022/09/05 08:18:53;;;;;;;3.40;3.20;;;36.80;58.90;;;42.96;22.46;101092.94;5002382;28;21228;-65
2022/09/05 08:21:41;;;;;;;3.93;3.73;;;37.40;57.90;;;43.61;21.79;101100.50;4998764;28;20649;-64
2022/09/05 08:24:36;;;;;;;5.50;3.80;;;37.90;56.60;;;44.36;20.47;101098.25;5011534;28;20625;-63
2022/09/05 08:27:41;;;;;;;3.40;3.30;;;38.30;55.20;;;45.01;20.11;101089.72;5008276;28;20646;-65
2022/09/05 08:30:10;;;;;;;3.60;3.50;;;38.60;54.40;;;46.05;19.17;101097.16;5013499;28;20970;-65
2022/09/05 08:33:20;;;;;;;3.87;3.63;;;39.40;53.30;;;47.05;17.96;101101.63;5010776;28;20630;-65
2022/09/05 08:35:55;;;;;;;3.60;3.30;;;40.10;52.20;;;47.63;17.51;101092.88;5006323;28;21267;-63
2022/09/05 08:38:31;;;;;;;4.10;4.00;;;40.60;51.20;;;48.42;17.03;101096.81;5008849;28;20621;-64
2022/09/05 08:41:24;;;;;;;4.27;3.97;;;41.20;50.30;;;49.44;16.40;101091.22;5007610;28;20670;-65
2022/09/05 08:44:30;;;;;;;3.50;3.30;;;41.80;49.40;;;50.32;15.80;101085.72;5008034;28;20610;-65
2022/09/05 08:47:29;;;;;;;3.50;3.40;;;42.50;48.30;;;51.04;14.75;101089.44;5011696;28;21056;-64
2022/09/05 08:50:38;;;;;;;4.10;3.90;;;43.30;47.10;;;51.49;14.30;101087.75;5009954;28;20649;-65
2022/09/05 08:53:47;;;;;;;4.17;3.90;;;43.60;46.20;;;51.54;14.28;101081.91;5012136;28;21075;-64
2022/09/05 08:56:56;;;;;;;3.80;3.60;;;43.90;45.70;;;52.25;13.81;101070.53;5010458;28;20712;-65
2022/09/05 08:59:31;;;;;;;3.40;3.30;;;44.10;45.50;;;53.78;12.74;101079.03;5008369;28;20656;-64
2022/09/05 09:02:48;;;;;;;4.60;4.30;;;45.10;44.60;;;54.67;12.40;101078.13;5003215;28;21218;-64
2022/09/05 09:05:20;;;;;;;4.23;4.03;;;45.80;43.90;;;55.18;11.68;101081.34;4988565;28;20683;-65
2022/09/05 09:08:25;;;;;;;5.00;4.70;;;46.30;42.90;;;55.13;12.34;101076.16;4999332;28;20601;-65
2022/09/05 09:11:05;;;;;;;4.33;4.13;;;46.80;42.40;;;53.86;13.35;101080.66;5009601;28;20637;-64
2022/09/05 09:13:51;;;;;;;4.37;4.07;;;46.50;42.20;;;54.97;12.65;101084.13;5000674;28;20642;-66
2022/09/05 09:16:38;;;;;;;3.90;3.80;;;46.90;42.20;;;57.24;10.75;101082.66;5010867;28;21038;-65
2022/09/05 09:19:26;;;;;;;3.80;3.60;;;47.80;41.50;;;57.55;11.07;101075.91;5020566;28;20673;-65
2022/09/05 09:22:17;;;;;;;3.80;3.70;;;48.40;40.70;;;53.69;12.64;101073.78;5001868;28;21266;-65
2022/09/05 09:25:17;;;;;;;3.53;3.37;;;47.20;40.70;;;51.03;14.13;101056.47;5010902;28;20620;-65
2022/09/05 09:28:33;;;;;;;4.40;4.07;;;45.70;41.00;;;47.96;16.48;101054.00;5017481;28;21292;-65
2022/09/05 09:31:20;;;;;;;3.70;3.50;;;43.70;42.30;;;47.24;17.53;101043.84;5011988;28;20671;-65
2022/09/05 09:33:53;;;;;;;3.70;3.40;;;42.30;43.80;;;48.68;16.29;101048.16;5010308;28;21195;-64
2022/09/05 09:36:51;;;;;;;3.50;3.30;;;42.60;43.60;;;50.99;14.30;101055.59;5011732;28;20669;-64
2022/09/05 09:40:02;;;;;;;3.37;3.20;;;43.10;43.30;;;51.79;14.02;101046.88;5004472;28;20642;-62
2022/09/05 09:43:02;;;;;;;3.73;3.53;;;44.40;42.30;;;53.78;13.00;101040.75;4997962;28;20638;-65
2022/09/05 09:46:01;;;;;;;4.30;4.00;;;45.70;41.90;;;54.22;12.07;101026.56;5004303;28;20730;-65
2022/09/05 09:49:07;;;;;;;3.97;3.67;;;46.50;41.10;;;54.03;12.12;101024.09;5011142;28;20609;-65
2022/09/05 09:52:13;;;;;;;9.93;3.73;;;46.80;40.60;;;53.57;12.56;101015.50;4995114;28;20629;-66
2022/09/05 09:55:06;;;;;;;3.50;3.40;;;46.30;40.90;;;53.58;12.65;101017.13;5009888;28;20679;-66
2022/09/05 09:58:27;;;;;;;4.03;3.73;;;46.30;40.40;;;54.61;12.47;101023.81;5009971;28;20653;-64
2022/09/05 10:01:30;;;;;;;4.07;3.87;;;47.10;40.20;;;54.72;12.28;101021.81;5010420;28;20647;-66
2022/09/05 10:04:39;;;;;;;4.83;4.50;;;47.50;39.80;;;52.76;13.36;101011.38;5007850;28;20702;-65
2022/09/05 10:07:54;;;;;;;4.07;3.77;;;46.80;39.90;;;50.20;15.18;101008.13;5010482;28;20665;-65
2022/09/05 10:11:05;;;;;;;6.27;5.00;;;46.50;39.90;;;52.72;13.52;101002.16;5010334;28;20621;-64
2022/09/05 10:14:36;;;;;;;3.87;3.77;;;45.80;40.70;;;53.77;12.76;101007.66;4994457;28;20990;-64
2022/09/05 10:17:56;;;;;;;4.33;4.13;;;46.80;40.20;;;53.13;13.27;101012.88;5005805;28;20674;-64
2022/09/05 10:20:38;;;;;;;4.30;4.10;;;45.70;40.30;;;53.93;12.32;101017.28;5018109;28;20988;-64
2022/09/05 10:23:26;;;;;;;4.07;3.77;;;46.00;40.60;;;53.94;12.89;101002.13;5006490;28;20655;-65
2022/09/05 10:26:25;;;;;;;4.20;3.90;;;46.00;40.80;;;52.47;13.10;101001.94;5008931;28;21422;-65
2022/09/05 10:29:12;;;;;;;3.07;2.97;;;45.70;40.80;;;47.25;16.83;100974.38;5006152;28;21185;-64
2022/09/05 10:32:07;;;;;;;3.60;3.30;;;43.60;41.10;;;43.71;19.47;100969.13;5008492;28;20992;-64
2022/09/05 10:34:59;;;;;;;3.00;2.80;;;40.70;43.30;;;41.62;21.77;100970.53;5011925;28;20621;-65
2022/09/05 10:38:02;;;;;;;3.13;2.83;;;39.30;45.10;;;39.52;24.41;100963.03;5011253;28;20661;-64
2022/09/05 10:40:42;;;;;;;4.40;3.40;;;37.90;45.90;;;37.98;26.26;100958.84;5010417;28;21177;-65
2022/09/05 10:43:32;;;;;;;3.70;3.40;;;36.70;47.20;;;36.81;27.52;100959.59;5010179;28;20618;-63
2022/09/05 10:46:20;;;;;;;5.57;2.90;;;35.20;48.60;;;35.73;29.54;100948.13;5010850;28;20645;-64
2022/09/05 10:49:11;;;;;;;14.67;11.97;;;34.60;50.50;;;34.48;31.33;100934.72;5009018;28;20628;-64
2022/09/05 10:52:05;;;;;;;7.40;6.27;;;33.60;51.30;;;33.58;32.71;100936.28;5003832;28;20622;-63
2022/09/05 10:55:18;;;;;;;4.87;3.80;;;32.80;52.70;;;33.49;32.73;100942.38;4996480;28;21153;-65
2022/09/05 10:58:17;;;;;;;4.80;4.40;;;32.20;53.60;;;32.88;34.59;100941.56;5003326;23;21186;-66
2022/09/05 11:01:22;;;;;;;5.20;3.53;;;31.60;55.00;;;32.13;35.39;100934.97;4998497;28;20645;-67
2022/09/05 11:04:46;;;;;;;2.93;2.73;;;31.10;55.50;;;31.48;36.23;100929.16;5016111;28;20637;-67
2022/09/05 11:07:39;;;;;;;3.13;2.80;;;30.60;56.40;;;31.18;36.95;100928.50;5014025;28;20688;-66
2022/09/05 11:11:02;;;;;;;5.03;3.17;;;30.30;57.20;;;30.49;38.64;100918.59;4983228;28;20618;-66
2022/09/05 11:13:46;;;;;;;6.40;3.07;;;29.90;58.00;;;30.02;40.01;100925.72;4995051;28;20685;-66
2022/09/05 11:16:49;;;;;;;3.40;3.00;;;29.30;59.50;;;29.89;40.74;100909.78;4995358;28;20685;-66
2022/09/05 11:19:44;;;;;;;3.07;2.77;;;29.00;60.60;;;29.71;40.33;100910.63;5010755;28;20610;-64
2022/09/05 11:22:14;;;;;;;3.07;2.87;;;28.80;61.10;;;29.69;40.64;100901.97;5011000;28;20611;-66
2022/09/05 11:24:56;;;;;;;3.30;3.00;;;28.80;61.50;;;29.67;40.65;100911.31;4995571;28;20634;-66
2022/09/05 11:27:28;;;;;;;2.10;2.00;;;28.70;61.10;;;29.25;41.53;100898.84;4994403;28;20646;-67
2022/09/05 11:30:07;;;;;;;3.47;2.67;;;28.50;61.90;;;29.13;42.14;100899.56;4995544;28;20619;-67
2022/09/05 11:33:28;;;;;;;3.70;3.30;;;28.40;62.40;;;29.11;42.11;100901.66;5008063;28;20623;-64
2022/09/05 11:36:29;;;;;;;4.00;3.60;;;28.30;63.40;;;28.99;42.28;100908.81;4994772;28;20657;-65
2022/09/05 11:39:30;;;;;;;6.00;3.30;;;28.10;63.90;;;28.95;42.22;100899.56;4994580;28;20627;-64
2022/09/05 11:43:12;;;;;;;2.67;2.47;;;28.00;63.60;;;29.00;42.39;100899.72;4986141;28;20971;-65
2022/09/05 11:46:27;;;;;;;3.70;2.97;;;28.00;63.90;;;29.03;42.84;100899.28;4995071;28;20622;-65
2022/09/05 11:49:36;;;;;;;4.67;2.57;;;28.00;64.60;;;29.12;42.79;100905.16;4984996;28;20634;-65
2022/09/05 11:52:20;;;;;;;2.53;2.40;;;28.20;64.40;;;29.39;41.54;100903.03;4994948;28;20627;-64
2022/09/05 11:55:18;;;;;;;3.80;3.47;;;28.20;64.00;;;29.63;40.90;100897.50;4994559;28;20981;-64
2022/09/05 11:58:05;;;;;;;3.30;3.10;;;28.20;63.40;;;29.61;39.87;100898.78;4994674;28;20678;-65
2022/09/05 12:01:08;;;;;;;2.80;2.60;;;28.20;63.20;;;29.43;40.05;100896.13;5001555;28;20621;-65
2022/09/05 12:04:18;;;;;;;3.90;2.13;;;28.10;63.10;;;29.55;41.23;100884.38;5005088;28;20629;-65
2022/09/05 12:07:22;;;;;;;3.63;3.43;;;28.20;63.90;;;29.45;41.07;100881.44;5011740;28;20645;-66
2022/09/05 12:10:57;;;;;;;2.93;2.70;;;28.00;65.20;;;29.24;40.69;100881.09;4992652;28;21181;-65
2022/09/05 12:13:45;;;;;;;3.37;3.07;;;27.80;64.50;;;29.24;41.07;100881.09;4994447;28;20623;-67
2022/09/05 12:16:43;;;;;;;2.83;2.17;;;27.70;65.00;;;29.20;41.15;100874.53;5021396;28;20640;-64
2022/09/05 12:19:28;;;;;;;4.10;2.20;;;27.80;64.90;;;29.09;41.11;100879.56;4982131;28;21068;-66
2022/09/05 12:22:16;;;;;;;2.30;2.20;;;27.80;64.70;;;29.27;41.03;100872.56;5008045;28;20693;-67